sensor_id;sensor_type;location;lat;lon;timestamp;temperature;humidity
43528;DHT22;52359;42.658;23.320;2023-10-08T06:05:26;14.30;92.80
43528;DHT22;52359;42.658;23.320;2023-10-08T06:07:58;14.40;92.90
43528;DHT22;52359;42.658;23.320;2023-10-08T06:10:36;14.50;92.70
43528;DHT22;52359;42.658;23.320;2023-10-08T06:13:07;14.70;92.90
43528;DHT22;52359;42.658;23.320;2023-10-08T06:15:43;14.80;92.50
43528;DHT22;52359;42.658;23.320;2023-10-08T06:18:25;15.00;93.00
43528;DHT22;52359;42.658;23.320;2023-10-08T06:23:21;15.60;88.60
43528;DHT22;52359;42.658;23.320;2023-10-08T06:25:52;15.90;85.90
43528;DHT22;52359;42.658;23.320;2023-10-08T06:46:14;18.30;87.20
43528;DHT22;52359;42.658;23.320;2023-10-08T06:48:41;18.30;87.10
43528;DHT22;52359;42.658;23.320;2023-10-08T06:51:10;17.90;85.90
43528;DHT22;52359;42.658;23.320;2023-10-08T06:53:43;18.00;85.20
43528;DHT22;52359;42.658;23.320;2023-10-08T06:56:13;18.40;83.90
43528;DHT22;52359;42.658;23.320;2023-10-08T06:58:41;18.90;84.60
43528;DHT22;52359;42.658;23.320;2023-10-08T07:01:11;19.00;85.40
43528;DHT22;52359;42.658;23.320;2023-10-08T07:03:38;19.30;86.60
43528;DHT22;52359;42.658;23.320;2023-10-08T07:13:39;20.10;86.60
43528;DHT22;52359;42.658;23.320;2023-10-08T07:16:06;20.50;74.60
43528;DHT22;52359;42.658;23.320;2023-10-08T07:18:37;20.90;72.50
43528;DHT22;52359;42.658;23.320;2023-10-08T07:21:03;20.70;72.40
43528;DHT22;52359;42.658;23.320;2023-10-08T07:23:38;21.20;71.40
43528;DHT22;52359;42.658;23.320;2023-10-08T07:26:22;21.70;71.80
43528;DHT22;52359;42.658;23.320;2023-10-08T07:28:50;21.90;71.90
43528;DHT22;52359;42.658;23.320;2023-10-08T07:31:23;22.20;71.90
43528;DHT22;52359;42.658;23.320;2023-10-08T07:33:51;22.40;72.00
43528;DHT22;52359;42.658;23.320;2023-10-08T07:36:27;22.50;74.30
43528;DHT22;52359;42.658;23.320;2023-10-08T08:18:49;26.50;60.70
43528;DHT22;52359;42.658;23.320;2023-10-08T08:23:46;26.30;56.90
43528;DHT22;52359;42.658;23.320;2023-10-08T08:26:23;26.20;58.50
43528;DHT22;52359;42.658;23.320;2023-10-08T08:29:03;26.70;58.60
43528;DHT22;52359;42.658;23.320;2023-10-08T08:31:29;26.70;58.90
43528;DHT22;52359;42.658;23.320;2023-10-08T08:34:02;26.80;58.30
43528;DHT22;52359;42.658;23.320;2023-10-08T08:36:30;26.80;58.40
43528;DHT22;52359;42.658;23.320;2023-10-08T08:38:57;27.00;58.30
43528;DHT22;52359;42.658;23.320;2023-10-08T08:41:23;27.30;58.60
43528;DHT22;52359;42.658;23.320;2023-10-08T08:43:53;27.60;58.60
43528;DHT22;52359;42.658;23.320;2023-10-08T08:46:34;27.50;58.50
43528;DHT22;52359;42.658;23.320;2023-10-08T08:49:03;27.10;58.00
43528;DHT22;52359;42.658;23.320;2023-10-08T08:51:30;27.00;58.50
43528;DHT22;52359;42.658;23.320;2023-10-08T08:53:56;27.10;58.60
43528;DHT22;52359;42.658;23.320;2023-10-08T08:56:22;27.10;59.20
43528;DHT22;52359;42.658;23.320;2023-10-08T08:58:49;27.30;58.40
43528;DHT22;52359;42.658;23.320;2023-10-08T09:01:16;26.90;58.70
43528;DHT22;52359;42.658;23.320;2023-10-08T09:03:44;26.80;59.40
43528;DHT22;52359;42.658;23.320;2023-10-08T09:06:13;26.80;59.00
43528;DHT22;52359;42.658;23.320;2023-10-08T09:08:39;26.60;59.50
43528;DHT22;52359;42.658;23.320;2023-10-08T09:11:16;26.90;59.30
43528;DHT22;52359;42.658;23.320;2023-10-08T09:13:42;27.50;59.00
43528;DHT22;52359;42.658;23.320;2023-10-08T09:16:14;27.70;58.50
43528;DHT22;52359;42.658;23.320;2023-10-08T09:18:44;27.90;58.50
43528;DHT22;52359;42.658;23.320;2023-10-08T09:21:14;27.90;59.00
43528;DHT22;52359;42.658;23.320;2023-10-08T09:23:44;28.20;58.80
43528;DHT22;52359;42.658;23.320;2023-10-08T09:26:22;28.70;58.70
43528;DHT22;52359;42.658;23.320;2023-10-08T09:28:47;29.20;58.40
43528;DHT22;52359;42.658;23.320;2023-10-08T09:31:17;29.70;58.40
43528;DHT22;52359;42.658;23.320;2023-10-08T09:33:53;29.70;59.20
43528;DHT22;52359;42.658;23.320;2023-10-08T09:36:19;30.40;58.90
43528;DHT22;52359;42.658;23.320;2023-10-08T09:38:46;31.30;59.00
43528;DHT22;52359;42.658;23.320;2023-10-08T09:41:15;31.70;58.90
43528;DHT22;52359;42.658;23.320;2023-10-08T09:43:41;32.10;59.30
43528;DHT22;52359;42.658;23.320;2023-10-08T09:46:19;32.90;59.20
43528;DHT22;52359;42.658;23.320;2023-10-08T09:48:49;33.00;58.60
43528;DHT22;52359;42.658;23.320;2023-10-08T09:51:16;32.80;59.20
43528;DHT22;52359;42.658;23.320;2023-10-08T09:54:02;33.10;59.60
43528;DHT22;52359;42.658;23.320;2023-10-08T09:56:31;33.10;58.50
43528;DHT22;52359;42.658;23.320;2023-10-08T09:58:58;32.40;59.00
43528;DHT22;52359;42.658;23.320;2023-10-08T10:01:25;32.80;58.90
43528;DHT22;52359;42.658;23.320;2023-10-08T10:03:52;32.30;59.50
43528;DHT22;52359;42.658;23.320;2023-10-08T10:06:18;32.20;59.10
43528;DHT22;52359;42.658;23.320;2023-10-08T10:08:45;31.60;58.40
43528;DHT22;52359;42.658;23.320;2023-10-08T10:11:12;30.80;59.80
43528;DHT22;52359;42.658;23.320;2023-10-08T10:36:42;41.60;46.40
43528;DHT22;52359;42.658;23.320;2023-10-08T10:39:10;42.10;47.90
43528;DHT22;52359;42.658;23.320;2023-10-08T10:41:48;41.80;47.90
43528;DHT22;52359;42.658;23.320;2023-10-08T10:44:17;42.20;48.00
43528;DHT22;52359;42.658;23.320;2023-10-08T10:46:44;43.50;48.20
43528;DHT22;52359;42.658;23.320;2023-10-08T10:49:19;42.90;47.70
43528;DHT22;52359;42.658;23.320;2023-10-08T10:51:47;41.20;49.40
43528;DHT22;52359;42.658;23.320;2023-10-08T10:54:15;41.50;49.10
43528;DHT22;52359;42.658;23.320;2023-10-08T10:56:47;40.40;50.20
43528;DHT22;52359;42.658;23.320;2023-10-08T10:59:13;39.80;50.30
43528;DHT22;52359;42.658;23.320;2023-10-08T11:04:21;36.70;51.10
43528;DHT22;52359;42.658;23.320;2023-10-08T11:06:55;37.90;51.90
43528;DHT22;52359;42.658;23.320;2023-10-08T11:09:27;36.20;51.30
43528;DHT22;52359;42.658;23.320;2023-10-08T13:17:11;27.40;60.20
43528;DHT22;52359;42.658;23.320;2023-10-08T13:19:37;27.40;59.00
43528;DHT22;52359;42.658;23.320;2023-10-08T13:22:03;27.40;58.10
43528;DHT22;52359;42.658;23.320;2023-10-08T13:24:35;27.30;58.50
43528;DHT22;52359;42.658;23.320;2023-10-08T13:27:06;27.20;58.60
43528;DHT22;52359;42.658;23.320;2023-10-08T13:29:32;27.00;59.00
43528;DHT22;52359;42.658;23.320;2023-10-08T13:31:58;26.70;59.30
43528;DHT22;52359;42.658;23.320;2023-10-08T13:34:24;26.80;59.00
43528;DHT22;52359;42.658;23.320;2023-10-08T13:36:52;26.50;60.00
43528;DHT22;52359;42.658;23.320;2023-10-08T13:39:17;26.40;59.70
43528;DHT22;52359;42.658;23.320;2023-10-08T13:41:47;26.70;59.90
43528;DHT22;52359;42.658;23.320;2023-10-08T13:44:17;26.80;59.50
43528;DHT22;52359;42.658;23.320;2023-10-08T13:46:44;26.50;60.00
43528;DHT22;52359;42.658;23.320;2023-10-08T13:49:15;26.50;59.90
43528;DHT22;52359;42.658;23.320;2023-10-08T13:51:42;26.70;60.00
43528;DHT22;52359;42.658;23.320;2023-10-08T13:54:10;26.40;59.90
43528;DHT22;52359;42.658;23.320;2023-10-08T13:56:36;26.30;60.00
43528;DHT22;52359;42.658;23.320;2023-10-08T13:59:04;26.20;60.10
43528;DHT22;52359;42.658;23.320;2023-10-08T14:01:37;26.10;60.40
43528;DHT22;52359;42.658;23.320;2023-10-08T14:04:04;26.10;60.30
43528;DHT22;52359;42.658;23.320;2023-10-08T14:06:34;26.20;60.40
43528;DHT22;52359;42.658;23.320;2023-10-08T14:09:03;25.80;60.60
43528;DHT22;52359;42.658;23.320;2023-10-08T14:11:38;25.80;60.50
43528;DHT22;52359;42.658;23.320;2023-10-08T14:14:04;25.90;60.90
43528;DHT22;52359;42.658;23.320;2023-10-08T14:16:39;25.80;61.10
43528;DHT22;52359;42.658;23.320;2023-10-08T14:19:10;25.70;61.80
43528;DHT22;52359;42.658;23.320;2023-10-08T14:21:38;25.80;61.30
43528;DHT22;52359;42.658;23.320;2023-10-08T14:24:17;25.80;61.00
43528;DHT22;52359;42.658;23.320;2023-10-08T14:26:43;25.90;61.10
43528;DHT22;52359;42.658;23.320;2023-10-08T14:29:09;25.70;61.20
43528;DHT22;52359;42.658;23.320;2023-10-08T14:31:41;25.60;61.30
43528;DHT22;52359;42.658;23.320;2023-10-08T14:34:10;25.70;63.00
43528;DHT22;52359;42.658;23.320;2023-10-08T14:36:58;25.40;62.00
43528;DHT22;52359;42.658;23.320;2023-10-08T14:39:42;25.50;62.40
43528;DHT22;52359;42.658;23.320;2023-10-08T14:42:26;25.30;62.60
43528;DHT22;52359;42.658;23.320;2023-10-08T14:45:11;24.90;62.20
43528;DHT22;52359;42.658;23.320;2023-10-08T14:47:39;24.90;62.00
43528;DHT22;52359;42.658;23.320;2023-10-08T14:50:05;24.80;62.10
43528;DHT22;52359;42.658;23.320;2023-10-08T14:52:34;24.80;61.90
43528;DHT22;52359;42.658;23.320;2023-10-08T14:55:01;25.00;61.60
43528;DHT22;52359;42.658;23.320;2023-10-08T14:57:27;24.70;61.50
43528;DHT22;52359;42.658;23.320;2023-10-08T14:59:52;24.60;61.80
43528;DHT22;52359;42.658;23.320;2023-10-08T15:02:18;24.50;61.70
43528;DHT22;52359;42.658;23.320;2023-10-08T15:04:44;24.50;61.70
43528;DHT22;52359;42.658;23.320;2023-10-08T15:07:10;24.40;61.80
43528;DHT22;52359;42.658;23.320;2023-10-08T15:09:43;24.10;61.70
43528;DHT22;52359;42.658;23.320;2023-10-08T15:12:10;24.10;62.40
43528;DHT22;52359;42.658;23.320;2023-10-08T15:14:36;24.10;62.10
43528;DHT22;52359;42.658;23.320;2023-10-08T15:17:04;24.00;62.30
43528;DHT22;52359;42.658;23.320;2023-10-08T15:19:30;23.90;62.70
43528;DHT22;52359;42.658;23.320;2023-10-08T15:21:57;23.90;62.90
43528;DHT22;52359;42.658;23.320;2023-10-08T15:24:23;23.80;63.10
43528;DHT22;52359;42.658;23.320;2023-10-08T15:26:51;23.90;63.00
43528;DHT22;52359;42.658;23.320;2023-10-08T15:29:24;23.80;63.00
43528;DHT22;52359;42.658;23.320;2023-10-08T15:31:53;23.90;63.00
43528;DHT22;52359;42.658;23.320;2023-10-08T15:34:22;23.70;63.20
43528;DHT22;52359;42.658;23.320;2023-10-08T15:36:52;23.60;63.40
43528;DHT22;52359;42.658;23.320;2023-10-08T15:39:18;23.50;63.70
43528;DHT22;52359;42.658;23.320;2023-10-08T15:41:50;23.50;64.00
43528;DHT22;52359;42.658;23.320;2023-10-08T15:44:19;23.50;64.00
43528;DHT22;52359;42.658;23.320;2023-10-08T15:46:48;23.40;64.30
43528;DHT22;52359;42.658;23.320;2023-10-08T15:49:15;23.20;64.40
43528;DHT22;52359;42.658;23.320;2023-10-08T15:51:40;23.40;64.60
43528;DHT22;52359;42.658;23.320;2023-10-08T15:54:06;23.20;64.80
43528;DHT22;52359;42.658;23.320;2023-10-08T15:56:33;23.10;65.00
43528;DHT22;52359;42.658;23.320;2023-10-08T15:59:00;23.00;65.20
43528;DHT22;52359;42.658;23.320;2023-10-08T16:01:25;23.00;65.40
43528;DHT22;52359;42.658;23.320;2023-10-08T16:03:51;22.90;65.60
43528;DHT22;52359;42.658;23.320;2023-10-08T16:06:18;22.80;65.80
43528;DHT22;52359;42.658;23.320;2023-10-08T16:08:45;22.80;65.90
43528;DHT22;52359;42.658;23.320;2023-10-08T16:11:11;22.80;66.00
43528;DHT22;52359;42.658;23.320;2023-10-08T16:13:37;22.70;66.20
43528;DHT22;52359;42.658;23.320;2023-10-08T16:16:04;22.70;66.40
43528;DHT22;52359;42.658;23.320;2023-10-08T16:18:30;22.50;66.60
43528;DHT22;52359;42.658;23.320;2023-10-08T16:20:56;22.50;67.20
43528;DHT22;52359;42.658;23.320;2023-10-08T16:23:22;22.40;66.90
43528;DHT22;52359;42.658;23.320;2023-10-08T16:25:48;22.50;67.60
43528;DHT22;52359;42.658;23.320;2023-10-08T16:28:19;22.50;67.70
43528;DHT22;52359;42.658;23.320;2023-10-08T16:30:45;22.50;66.40
43528;DHT22;52359;42.658;23.320;2023-10-08T16:33:17;22.50;66.30
43528;DHT22;52359;42.658;23.320;2023-10-08T16:35:44;22.60;66.40
43528;DHT22;52359;42.658;23.320;2023-10-08T16:38:12;22.40;66.40
43528;DHT22;52359;42.658;23.320;2023-10-08T16:40:39;22.30;66.90
43528;DHT22;52359;42.658;23.320;2023-10-08T16:43:05;22.30;66.80
43528;DHT22;52359;42.658;23.320;2023-10-08T16:45:37;22.10;67.50
43528;DHT22;52359;42.658;23.320;2023-10-08T16:48:05;22.10;67.50
43528;DHT22;52359;42.658;23.320;2023-10-08T16:50:31;22.10;67.50
43528;DHT22;52359;42.658;23.320;2023-10-08T16:52:58;22.00;67.90
43528;DHT22;52359;42.658;23.320;2023-10-08T16:55:23;22.10;68.10
43528;DHT22;52359;42.658;23.320;2023-10-08T16:57:50;22.00;68.10
43528;DHT22;52359;42.658;23.320;2023-10-08T17:00:16;22.00;68.40
43528;DHT22;52359;42.658;23.320;2023-10-08T17:02:42;22.00;68.20
43528;DHT22;52359;42.658;23.320;2023-10-08T17:05:09;21.90;68.10
43528;DHT22;52359;42.658;23.320;2023-10-08T17:07:34;21.90;68.40
43528;DHT22;52359;42.658;23.320;2023-10-08T17:10:00;21.80;68.70
43528;DHT22;52359;42.658;23.320;2023-10-08T17:12:26;21.80;69.00
43528;DHT22;52359;42.658;23.320;2023-10-08T17:14:51;21.80;68.90
43528;DHT22;52359;42.658;23.320;2023-10-08T17:17:17;21.70;69.30
43528;DHT22;52359;42.658;23.320;2023-10-08T17:19:44;21.70;69.90
43528;DHT22;52359;42.658;23.320;2023-10-08T17:22:10;21.60;70.40
43528;DHT22;52359;42.658;23.320;2023-10-08T17:24:36;21.60;70.50
43528;DHT22;52359;42.658;23.320;2023-10-08T17:27:01;21.50;70.50
43528;DHT22;52359;42.658;23.320;2023-10-08T17:29:28;21.50;71.00
43528;DHT22;52359;42.658;23.320;2023-10-08T17:31:54;21.60;71.30
43528;DHT22;52359;42.658;23.320;2023-10-08T17:34:21;21.60;71.40
43528;DHT22;52359;42.658;23.320;2023-10-08T17:36:48;21.50;71.90
43528;DHT22;52359;42.658;23.320;2023-10-08T17:39:14;21.40;71.80
43528;DHT22;52359;42.658;23.320;2023-10-08T17:41:44;21.40;71.90
43528;DHT22;52359;42.658;23.320;2023-10-08T17:44:15;21.30;72.10
43528;DHT22;52359;42.658;23.320;2023-10-08T17:46:41;21.40;72.30
43528;DHT22;52359;42.658;23.320;2023-10-08T17:49:08;21.30;72.40
43528;DHT22;52359;42.658;23.320;2023-10-08T17:51:34;21.40;72.70
43528;DHT22;52359;42.658;23.320;2023-10-08T17:54:01;21.20;73.00
43528;DHT22;52359;42.658;23.320;2023-10-08T17:56:27;21.30;73.10
43528;DHT22;52359;42.658;23.320;2023-10-08T17:58:53;21.20;73.30
43528;DHT22;52359;42.658;23.320;2023-10-08T18:01:19;21.20;73.70
43528;DHT22;52359;42.658;23.320;2023-10-08T18:03:45;21.20;73.80
43528;DHT22;52359;42.658;23.320;2023-10-08T18:06:13;21.20;74.10
43528;DHT22;52359;42.658;23.320;2023-10-08T18:08:43;21.10;74.20
43528;DHT22;52359;42.658;23.320;2023-10-08T18:11:10;21.20;74.50
43528;DHT22;52359;42.658;23.320;2023-10-08T18:13:36;21.10;74.80
43528;DHT22;52359;42.658;23.320;2023-10-08T18:16:12;21.10;74.90
43528;DHT22;52359;42.658;23.320;2023-10-08T18:18:40;21.10;74.90
43528;DHT22;52359;42.658;23.320;2023-10-08T18:21:07;21.10;75.10
43528;DHT22;52359;42.658;23.320;2023-10-08T18:23:38;21.10;75.10
43528;DHT22;52359;42.658;23.320;2023-10-08T18:26:08;21.10;75.40
43528;DHT22;52359;42.658;23.320;2023-10-08T18:28:36;21.10;75.50
43528;DHT22;52359;42.658;23.320;2023-10-08T18:31:04;21.00;75.80
43528;DHT22;52359;42.658;23.320;2023-10-08T18:33:35;21.00;75.60
43528;DHT22;52359;42.658;23.320;2023-10-08T18:36:11;20.90;75.80
43528;DHT22;52359;42.658;23.320;2023-10-08T18:38:37;21.00;75.80
43528;DHT22;52359;42.658;23.320;2023-10-08T18:41:05;21.00;76.00
43528;DHT22;52359;42.658;23.320;2023-10-08T18:43:34;20.90;76.10
43528;DHT22;52359;42.658;23.320;2023-10-08T18:45:59;20.90;76.10
43528;DHT22;52359;42.658;23.320;2023-10-08T18:48:25;20.90;76.50
43528;DHT22;52359;42.658;23.320;2023-10-08T18:50:51;20.80;76.40
43528;DHT22;52359;42.658;23.320;2023-10-08T18:53:17;20.80;76.50
43528;DHT22;52359;42.658;23.320;2023-10-08T18:55:44;20.90;76.70
43528;DHT22;52359;42.658;23.320;2023-10-08T18:58:10;20.90;76.70
43528;DHT22;52359;42.658;23.320;2023-10-08T19:00:36;20.70;76.80
43528;DHT22;52359;42.658;23.320;2023-10-08T19:03:04;20.80;77.10
43528;DHT22;52359;42.658;23.320;2023-10-08T19:05:31;20.80;77.10
43528;DHT22;52359;42.658;23.320;2023-10-08T19:07:57;20.60;77.20
43528;DHT22;52359;42.658;23.320;2023-10-08T19:10:23;20.60;77.20
43528;DHT22;52359;42.658;23.320;2023-10-08T19:12:49;20.70;77.20
43528;DHT22;52359;42.658;23.320;2023-10-08T19:15:15;20.60;77.40
43528;DHT22;52359;42.658;23.320;2023-10-08T19:17:42;20.70;77.50
43528;DHT22;52359;42.658;23.320;2023-10-08T19:20:10;20.70;77.80
43528;DHT22;52359;42.658;23.320;2023-10-08T19:22:38;20.60;79.10
43528;DHT22;52359;42.658;23.320;2023-10-08T19:25:04;20.60;78.20
43528;DHT22;52359;42.658;23.320;2023-10-08T19:27:30;20.70;78.10
43528;DHT22;52359;42.658;23.320;2023-10-08T19:29:56;20.60;78.40
43528;DHT22;52359;42.658;23.320;2023-10-08T19:32:24;20.60;77.90
43528;DHT22;52359;42.658;23.320;2023-10-08T19:34:51;20.50;78.30
43528;DHT22;52359;42.658;23.320;2023-10-08T19:37:19;20.60;78.70
43528;DHT22;52359;42.658;23.320;2023-10-08T19:39:44;20.50;78.50
43528;DHT22;52359;42.658;23.320;2023-10-08T19:42:10;20.50;78.30
43528;DHT22;52359;42.658;23.320;2023-10-08T19:44:37;20.60;78.50
43528;DHT22;52359;42.658;23.320;2023-10-08T19:47:03;20.50;78.50
43528;DHT22;52359;42.658;23.320;2023-10-08T19:49:29;20.50;78.70
43528;DHT22;52359;42.658;23.320;2023-10-08T19:51:54;20.40;78.70
43528;DHT22;52359;42.658;23.320;2023-10-08T19:54:22;20.50;78.70
43528;DHT22;52359;42.658;23.320;2023-10-08T19:56:50;20.50;78.80
43528;DHT22;52359;42.658;23.320;2023-10-08T19:59:15;20.40;79.00
43528;DHT22;52359;42.658;23.320;2023-10-08T20:01:42;20.40;79.10
43528;DHT22;52359;42.658;23.320;2023-10-08T20:04:08;20.40;79.20
43528;DHT22;52359;42.658;23.320;2023-10-08T20:06:34;20.30;79.40
43528;DHT22;52359;42.658;23.320;2023-10-08T20:09:03;20.30;80.50
43528;DHT22;52359;42.658;23.320;2023-10-08T20:11:32;20.40;79.50
43528;DHT22;52359;42.658;23.320;2023-10-08T20:13:58;20.20;79.30
43528;DHT22;52359;42.658;23.320;2023-10-08T20:16:24;20.30;79.60
43528;DHT22;52359;42.658;23.320;2023-10-08T20:18:53;20.30;80.10
43528;DHT22;52359;42.658;23.320;2023-10-08T20:21:18;20.40;80.00
43528;DHT22;52359;42.658;23.320;2023-10-08T20:23:44;20.30;80.00
43528;DHT22;52359;42.658;23.320;2023-10-08T20:26:15;20.30;80.10
43528;DHT22;52359;42.658;23.320;2023-10-08T20:28:46;20.20;79.80
43528;DHT22;52359;42.658;23.320;2023-10-08T20:31:16;20.20;80.20
43528;DHT22;52359;42.658;23.320;2023-10-08T20:33:45;20.30;80.20
43528;DHT22;52359;42.658;23.320;2023-10-08T20:36:11;20.20;80.00
43528;DHT22;52359;42.658;23.320;2023-10-08T20:38:39;20.30;80.10
43528;DHT22;52359;42.658;23.320;2023-10-08T20:41:04;20.10;80.70
43528;DHT22;52359;42.658;23.320;2023-10-08T20:43:32;20.00;81.00
43528;DHT22;52359;42.658;23.320;2023-10-08T20:45:58;20.00;80.70
43528;DHT22;52359;42.658;23.320;2023-10-08T20:48:26;20.10;80.90
43528;DHT22;52359;42.658;23.320;2023-10-08T20:50:54;20.20;81.20
43528;DHT22;52359;42.658;23.320;2023-10-08T20:53:20;20.10;81.20
43528;DHT22;52359;42.658;23.320;2023-10-08T20:55:47;20.10;81.30
43528;DHT22;52359;42.658;23.320;2023-10-08T20:58:13;20.00;81.20
43528;DHT22;52359;42.658;23.320;2023-10-08T21:00:43;20.00;81.10
43528;DHT22;52359;42.658;23.320;2023-10-08T21:03:11;20.00;81.30
43528;DHT22;52359;42.658;23.320;2023-10-08T21:05:38;20.00;81.40
43528;DHT22;52359;42.658;23.320;2023-10-08T21:08:09;20.10;81.40
43528;DHT22;52359;42.658;23.320;2023-10-08T21:10:35;19.90;81.90
43528;DHT22;52359;42.658;23.320;2023-10-08T21:13:02;19.80;81.80
43528;DHT22;52359;42.658;23.320;2023-10-08T21:15:31;19.90;81.90
43528;DHT22;52359;42.658;23.320;2023-10-08T21:17:59;20.00;82.10
43528;DHT22;52359;42.658;23.320;2023-10-08T21:20:25;20.00;82.00
43528;DHT22;52359;42.658;23.320;2023-10-08T21:22:53;19.90;82.00
43528;DHT22;52359;42.658;23.320;2023-10-08T21:25:20;20.00;82.20
43528;DHT22;52359;42.658;23.320;2023-10-08T21:27:50;19.90;82.30
43528;DHT22;52359;42.658;23.320;2023-10-08T21:30:15;20.00;82.30
43528;DHT22;52359;42.658;23.320;2023-10-08T21:32:45;19.80;82.20
43528;DHT22;52359;42.658;23.320;2023-10-08T21:35:17;20.00;82.30
43528;DHT22;52359;42.658;23.320;2023-10-08T21:37:44;19.90;82.60
43528;DHT22;52359;42.658;23.320;2023-10-08T21:40:10;19.90;82.50
43528;DHT22;52359;42.658;23.320;2023-10-08T21:42:37;19.80;82.60
43528;DHT22;52359;42.658;23.320;2023-10-08T21:45:07;19.90;82.90
43528;DHT22;52359;42.658;23.320;2023-10-08T21:47:34;19.90;82.80
43528;DHT22;52359;42.658;23.320;2023-10-08T21:50:01;19.90;83.10
43528;DHT22;52359;42.658;23.320;2023-10-08T21:52:27;19.90;83.10
43528;DHT22;52359;42.658;23.320;2023-10-08T21:54:56;19.80;83.10
43528;DHT22;52359;42.658;23.320;2023-10-08T21:57:22;19.90;83.10
43528;DHT22;52359;42.658;23.320;2023-10-08T21:59:48;19.80;83.40
43528;DHT22;52359;42.658;23.320;2023-10-08T22:02:14;19.80;83.50
43528;DHT22;52359;42.658;23.320;2023-10-08T22:04:41;19.70;83.70
43528;DHT22;52359;42.658;23.320;2023-10-08T22:07:07;19.70;83.90
43528;DHT22;52359;42.658;23.320;2023-10-08T22:09:33;19.60;84.00
43528;DHT22;52359;42.658;23.320;2023-10-08T22:12:01;19.60;84.10
43528;DHT22;52359;42.658;23.320;2023-10-08T22:14:34;19.70;84.20
43528;DHT22;52359;42.658;23.320;2023-10-08T22:17:02;19.60;84.10
43528;DHT22;52359;42.658;23.320;2023-10-08T22:19:37;19.70;84.20
43528;DHT22;52359;42.658;23.320;2023-10-08T22:22:10;19.70;84.30
43528;DHT22;52359;42.658;23.320;2023-10-08T22:24:39;19.80;84.20
43528;DHT22;52359;42.658;23.320;2023-10-08T22:27:08;19.60;84.40
43528;DHT22;52359;42.658;23.320;2023-10-08T22:29:54;19.60;84.50
43528;DHT22;52359;42.658;23.320;2023-10-08T22:32:20;19.60;84.80
43528;DHT22;52359;42.658;23.320;2023-10-08T22:34:49;19.60;84.90
43528;DHT22;52359;42.658;23.320;2023-10-08T22:37:25;19.60;84.80
43528;DHT22;52359;42.658;23.320;2023-10-08T22:40:20;19.50;84.80
43528;DHT22;52359;42.658;23.320;2023-10-08T22:42:50;19.60;85.00
43528;DHT22;52359;42.658;23.320;2023-10-08T22:45:18;19.50;85.00
43528;DHT22;52359;42.658;23.320;2023-10-08T22:47:44;19.50;85.10
43528;DHT22;52359;42.658;23.320;2023-10-08T22:50:10;19.50;85.10
43528;DHT22;52359;42.658;23.320;2023-10-08T22:52:55;19.60;85.20
43528;DHT22;52359;42.658;23.320;2023-10-08T22:55:21;19.60;85.30
43528;DHT22;52359;42.658;23.320;2023-10-08T22:57:48;19.50;85.40
43528;DHT22;52359;42.658;23.320;2023-10-08T23:00:14;19.60;85.40
43528;DHT22;52359;42.658;23.320;2023-10-08T23:02:40;19.60;85.50
43528;DHT22;52359;42.658;23.320;2023-10-08T23:05:09;19.50;85.60
43528;DHT22;52359;42.658;23.320;2023-10-08T23:07:35;19.40;85.90
43528;DHT22;52359;42.658;23.320;2023-10-08T23:10:00;19.50;86.20
43528;DHT22;52359;42.658;23.320;2023-10-08T23:12:26;19.30;86.30
43528;DHT22;52359;42.658;23.320;2023-10-08T23:14:54;19.20;86.60
43528;DHT22;52359;42.658;23.320;2023-10-08T23:17:21;19.30;86.70
43528;DHT22;52359;42.658;23.320;2023-10-08T23:19:48;19.30;86.80
43528;DHT22;52359;42.658;23.320;2023-10-08T23:22:17;19.20;87.00
43528;DHT22;52359;42.658;23.320;2023-10-08T23:24:43;19.20;87.10
43528;DHT22;52359;42.658;23.320;2023-10-08T23:27:08;19.20;87.10
43528;DHT22;52359;42.658;23.320;2023-10-08T23:29:34;19.20;87.10
43528;DHT22;52359;42.658;23.320;2023-10-08T23:32:00;19.20;87.30
43528;DHT22;52359;42.658;23.320;2023-10-08T23:34:26;19.20;87.30
43528;DHT22;52359;42.658;23.320;2023-10-08T23:36:51;19.10;87.50
43528;DHT22;52359;42.658;23.320;2023-10-08T23:39:21;19.10;87.90
43528;DHT22;52359;42.658;23.320;2023-10-08T23:41:51;19.00;88.00
43528;DHT22;52359;42.658;23.320;2023-10-08T23:44:27;19.10;88.20
43528;DHT22;52359;42.658;23.320;2023-10-08T23:46:58;19.10;88.20
43528;DHT22;52359;42.658;23.320;2023-10-08T23:49:30;19.10;88.20
43528;DHT22;52359;42.658;23.320;2023-10-08T23:51:56;19.10;88.10
43528;DHT22;52359;42.658;23.320;2023-10-08T23:54:26;19.00;88.10
43528;DHT22;52359;42.658;23.320;2023-10-08T23:57:09;19.10;88.20
43528;DHT22;52359;42.658;23.320;2023-10-08T23:59:44;19.10;88.20
